sensor_id;sensor_type;location;lat;lon;timestamp;P1;durP1;ratioP1;P2;durP2;ratioP2
58621;SDS011;44389;51.578;5.456;2023-02-28T00:00:04;13.93;;;12.10;;
58621;SDS011;44389;51.578;5.456;2023-02-28T00:02:35;18.42;;;11.77;;
58621;SDS011;44389;51.578;5.456;2023-02-28T00:05:01;13.73;;;12.07;;
58621;SDS011;44389;51.578;5.456;2023-02-28T00:07:28;13.25;;;11.85;;
58621;SDS011;44389;51.578;5.456;2023-02-28T00:09:55;17.73;;;11.73;;
58621;SDS011;44389;51.578;5.456;2023-02-28T00:12:20;14.02;;;12.38;;
58621;SDS011;44389;51.578;5.456;2023-02-28T00:14:45;14.95;;;12.50;;
58621;SDS011;44389;51.578;5.456;2023-02-28T00:17:10;13.60;;;6.88;;
58621;SDS011;44389;51.578;5.456;2023-02-28T00:19:36;15.30;;;12.43;;
58621;SDS011;44389;51.578;5.456;2023-02-28T00:22:01;17.75;;;12.20;;
58621;SDS011;44389;51.578;5.456;2023-02-28T00:24:26;16.77;;;11.85;;
58621;SDS011;44389;51.578;5.456;2023-02-28T00:26:52;17.35;;;12.18;;
58621;SDS011;44389;51.578;5.456;2023-02-28T00:29:17;18.23;;;11.73;;
58621;SDS011;44389;51.578;5.456;2023-02-28T00:31:42;14.23;;;11.85;;
58621;SDS011;44389;51.578;5.456;2023-02-28T00:34:07;15.70;;;12.68;;
58621;SDS011;44389;51.578;5.456;2023-02-28T00:36:33;16.35;;;12.15;;
58621;SDS011;44389;51.578;5.456;2023-02-28T00:38:58;15.05;;;11.90;;
58621;SDS011;44389;51.578;5.456;2023-02-28T00:41:23;14.50;;;11.43;;
58621;SDS011;44389;51.578;5.456;2023-02-28T00:43:48;9.38;;;6.05;;
58621;SDS011;44389;51.578;5.456;2023-02-28T00:46:14;14.60;;;11.10;;
58621;SDS011;44389;51.578;5.456;2023-02-28T00:48:39;16.80;;;11.70;;
58621;SDS011;44389;51.578;5.456;2023-02-28T00:51:04;16.38;;;11.57;;
58621;SDS011;44389;51.578;5.456;2023-02-28T00:53:30;15.13;;;11.82;;
58621;SDS011;44389;51.578;5.456;2023-02-28T00:55:57;12.40;;;11.10;;
58621;SDS011;44389;51.578;5.456;2023-02-28T00:58:23;15.00;;;11.65;;
58621;SDS011;44389;51.578;5.456;2023-02-28T01:00:48;19.75;;;12.23;;
58621;SDS011;44389;51.578;5.456;2023-02-28T01:03:17;14.23;;;11.60;;
58621;SDS011;44389;51.578;5.456;2023-02-28T01:05:43;13.93;;;11.60;;
58621;SDS011;44389;51.578;5.456;2023-02-28T01:08:09;10.05;;;5.75;;
58621;SDS011;44389;51.578;5.456;2023-02-28T01:10:34;18.70;;;12.43;;
58621;SDS011;44389;51.578;5.456;2023-02-28T01:13:01;16.13;;;12.40;;
58621;SDS011;44389;51.578;5.456;2023-02-28T01:15:26;14.95;;;11.52;;
58621;SDS011;44389;51.578;5.456;2023-02-28T01:17:51;17.98;;;12.82;;
58621;SDS011;44389;51.578;5.456;2023-02-28T01:20:17;15.85;;;12.32;;
58621;SDS011;44389;51.578;5.456;2023-02-28T01:22:42;14.23;;;11.85;;
58621;SDS011;44389;51.578;5.456;2023-02-28T01:25:08;15.70;;;12.90;;
58621;SDS011;44389;51.578;5.456;2023-02-28T01:27:34;18.30;;;13.13;;
58621;SDS011;44389;51.578;5.456;2023-02-28T01:29:59;14.93;;;12.40;;
58621;SDS011;44389;51.578;5.456;2023-02-28T01:32:24;13.65;;;11.55;;
58621;SDS011;44389;51.578;5.456;2023-02-28T01:34:50;9.18;;;5.28;;
58621;SDS011;44389;51.578;5.456;2023-02-28T01:37:15;14.27;;;11.75;;
58621;SDS011;44389;51.578;5.456;2023-02-28T01:39:40;17.30;;;12.60;;
58621;SDS011;44389;51.578;5.456;2023-02-28T01:42:07;13.82;;;6.72;;
58621;SDS011;44389;51.578;5.456;2023-02-28T01:47:18;13.02;;;11.57;;
58621;SDS011;44389;51.578;5.456;2023-02-28T01:49:44;15.00;;;12.30;;
58621;SDS011;44389;51.578;5.456;2023-02-28T01:52:09;14.18;;;12.40;;
58621;SDS011;44389;51.578;5.456;2023-02-28T01:54:42;15.55;;;12.35;;
58621;SDS011;44389;51.578;5.456;2023-02-28T01:57:11;13.77;;;12.38;;
58621;SDS011;44389;51.578;5.456;2023-02-28T01:59:42;23.20;;;12.65;;
58621;SDS011;44389;51.578;5.456;2023-02-28T02:02:16;16.10;;;12.32;;
58621;SDS011;44389;51.578;5.456;2023-02-28T02:07:15;15.10;;;13.32;;
58621;SDS011;44389;51.578;5.456;2023-02-28T02:09:41;10.07;;;6.20;;
58621;SDS011;44389;51.578;5.456;2023-02-28T02:14:50;21.95;;;14.02;;
58621;SDS011;44389;51.578;5.456;2023-02-28T02:17:28;18.45;;;14.63;;
58621;SDS011;44389;51.578;5.456;2023-02-28T02:28:53;11.43;;;6.10;;
58621;SDS011;44389;51.578;5.456;2023-02-28T02:37:10;16.60;;;13.52;;
58621;SDS011;44389;51.578;5.456;2023-02-28T02:39:45;17.27;;;14.13;;
58621;SDS011;44389;51.578;5.456;2023-02-28T02:42:26;15.80;;;13.23;;
58621;SDS011;44389;51.578;5.456;2023-02-28T02:45:21;9.95;;;6.82;;
58621;SDS011;44389;51.578;5.456;2023-02-28T02:48:03;14.95;;;13.23;;
58621;SDS011;44389;51.578;5.456;2023-02-28T02:50:37;14.85;;;13.15;;
58621;SDS011;44389;51.578;5.456;2023-02-28T02:53:07;13.93;;;6.75;;
58621;SDS011;44389;51.578;5.456;2023-02-28T02:58:04;14.48;;;12.45;;
58621;SDS011;44389;51.578;5.456;2023-02-28T03:00:35;15.68;;;13.05;;
58621;SDS011;44389;51.578;5.456;2023-02-28T03:03:05;13.98;;;12.55;;
58621;SDS011;44389;51.578;5.456;2023-02-28T03:05:35;13.65;;;11.75;;
58621;SDS011;44389;51.578;5.456;2023-02-28T03:08:06;14.98;;;11.98;;
58621;SDS011;44389;51.578;5.456;2023-02-28T03:10:33;13.75;;;12.07;;
58621;SDS011;44389;51.578;5.456;2023-02-28T03:27:10;13.73;;;10.55;;
58621;SDS011;44389;51.578;5.456;2023-02-28T03:29:47;15.48;;;11.02;;
58621;SDS011;44389;51.578;5.456;2023-02-28T03:32:20;15.30;;;11.40;;
58621;SDS011;44389;51.578;5.456;2023-02-28T03:34:56;13.00;;;9.80;;
58621;SDS011;44389;51.578;5.456;2023-02-28T03:37:30;7.35;;;4.47;;
58621;SDS011;44389;51.578;5.456;2023-02-28T03:40:10;13.02;;;9.80;;
58621;SDS011;44389;51.578;5.456;2023-02-28T03:42:39;13.27;;;10.48;;
58621;SDS011;44389;51.578;5.456;2023-02-28T03:45:09;12.88;;;10.00;;
58621;SDS011;44389;51.578;5.456;2023-02-28T03:47:45;12.40;;;10.05;;
58621;SDS011;44389;51.578;5.456;2023-02-28T03:55:56;14.43;;;9.80;;
58621;SDS011;44389;51.578;5.456;2023-02-28T04:01:12;14.63;;;9.60;;
58621;SDS011;44389;51.578;5.456;2023-02-28T04:03:41;14.10;;;10.00;;
58621;SDS011;44389;51.578;5.456;2023-02-28T04:06:07;14.98;;;9.70;;
58621;SDS011;44389;51.578;5.456;2023-02-28T04:08:38;12.52;;;10.32;;
58621;SDS011;44389;51.578;5.456;2023-02-28T04:11:04;14.10;;;10.13;;
58621;SDS011;44389;51.578;5.456;2023-02-28T04:13:39;11.27;;;8.60;;
58621;SDS011;44389;51.578;5.456;2023-02-28T04:16:08;11.27;;;9.73;;
58621;SDS011;44389;51.578;5.456;2023-02-28T04:18:37;13.07;;;9.27;;
58621;SDS011;44389;51.578;5.456;2023-02-28T04:21:03;12.82;;;9.85;;
58621;SDS011;44389;51.578;5.456;2023-02-28T04:23:30;13.85;;;9.80;;
58621;SDS011;44389;51.578;5.456;2023-02-28T04:25:55;13.88;;;10.07;;
58621;SDS011;44389;51.578;5.456;2023-02-28T04:28:20;12.63;;;9.98;;
58621;SDS011;44389;51.578;5.456;2023-02-28T04:30:46;15.50;;;10.10;;
58621;SDS011;44389;51.578;5.456;2023-02-28T04:33:11;13.25;;;10.13;;
58621;SDS011;44389;51.578;5.456;2023-02-28T04:35:36;11.68;;;9.93;;
58621;SDS011;44389;51.578;5.456;2023-02-28T04:38:02;12.38;;;10.23;;
58621;SDS011;44389;51.578;5.456;2023-02-28T04:40:27;12.45;;;9.60;;
58621;SDS011;44389;51.578;5.456;2023-02-28T04:42:52;12.63;;;11.00;;
58621;SDS011;44389;51.578;5.456;2023-02-28T04:45:17;12.25;;;9.48;;
58621;SDS011;44389;51.578;5.456;2023-02-28T04:47:43;13.10;;;10.23;;
58621;SDS011;44389;51.578;5.456;2023-02-28T04:50:08;13.45;;;9.80;;
58621;SDS011;44389;51.578;5.456;2023-02-28T04:52:34;11.77;;;10.18;;
58621;SDS011;44389;51.578;5.456;2023-02-28T04:54:59;10.65;;;5.25;;
58621;SDS011;44389;51.578;5.456;2023-02-28T04:57:24;12.27;;;9.43;;
58621;SDS011;44389;51.578;5.456;2023-02-28T04:59:50;9.65;;;5.32;;
58621;SDS011;44389;51.578;5.456;2023-02-28T05:02:15;12.13;;;9.85;;
58621;SDS011;44389;51.578;5.456;2023-02-28T05:04:40;12.30;;;10.20;;
58621;SDS011;44389;51.578;5.456;2023-02-28T05:07:06;12.68;;;9.18;;
58621;SDS011;44389;51.578;5.456;2023-02-28T05:09:31;12.90;;;9.25;;
58621;SDS011;44389;51.578;5.456;2023-02-28T05:11:57;11.70;;;9.68;;
58621;SDS011;44389;51.578;5.456;2023-02-28T05:14:23;13.27;;;9.30;;
58621;SDS011;44389;51.578;5.456;2023-02-28T05:16:48;10.95;;;9.43;;
58621;SDS011;44389;51.578;5.456;2023-02-28T05:19:13;13.57;;;9.85;;
58621;SDS011;44389;51.578;5.456;2023-02-28T05:21:48;13.48;;;10.27;;
58621;SDS011;44389;51.578;5.456;2023-02-28T05:24:16;11.77;;;10.32;;
58621;SDS011;44389;51.578;5.456;2023-02-28T05:26:47;14.23;;;10.38;;
58621;SDS011;44389;51.578;5.456;2023-02-28T05:29:14;14.27;;;10.50;;
58621;SDS011;44389;51.578;5.456;2023-02-28T05:31:40;13.57;;;10.43;;
58621;SDS011;44389;51.578;5.456;2023-02-28T05:34:05;14.30;;;10.07;;
58621;SDS011;44389;51.578;5.456;2023-02-28T05:36:31;12.98;;;10.48;;
58621;SDS011;44389;51.578;5.456;2023-02-28T05:38:57;13.20;;;10.23;;
58621;SDS011;44389;51.578;5.456;2023-02-28T05:41:22;12.32;;;10.23;;
58621;SDS011;44389;51.578;5.456;2023-02-28T05:43:47;12.45;;;9.95;;
58621;SDS011;44389;51.578;5.456;2023-02-28T05:46:13;13.43;;;10.10;;
58621;SDS011;44389;51.578;5.456;2023-02-28T05:48:39;13.77;;;10.23;;
58621;SDS011;44389;51.578;5.456;2023-02-28T05:51:06;14.10;;;10.30;;
58621;SDS011;44389;51.578;5.456;2023-02-28T05:53:32;14.98;;;9.93;;
58621;SDS011;44389;51.578;5.456;2023-02-28T05:55:58;13.18;;;9.85;;
58621;SDS011;44389;51.578;5.456;2023-02-28T05:58:24;14.98;;;10.30;;
58621;SDS011;44389;51.578;5.456;2023-02-28T06:00:59;14.15;;;11.00;;
58621;SDS011;44389;51.578;5.456;2023-02-28T06:03:26;14.73;;;11.00;;
58621;SDS011;44389;51.578;5.456;2023-02-28T06:05:52;13.65;;;11.30;;
58621;SDS011;44389;51.578;5.456;2023-02-28T06:08:17;12.55;;;10.48;;
58621;SDS011;44389;51.578;5.456;2023-02-28T06:10:43;15.38;;;11.20;;
58621;SDS011;44389;51.578;5.456;2023-02-28T06:13:08;13.18;;;10.75;;
58621;SDS011;44389;51.578;5.456;2023-02-28T06:15:34;15.00;;;10.90;;
58621;SDS011;44389;51.578;5.456;2023-02-28T06:17:59;13.63;;;10.85;;
58621;SDS011;44389;51.578;5.456;2023-02-28T06:20:25;15.65;;;10.80;;
58621;SDS011;44389;51.578;5.456;2023-02-28T06:22:54;11.80;;;10.60;;
58621;SDS011;44389;51.578;5.456;2023-02-28T06:25:21;13.23;;;10.77;;
58621;SDS011;44389;51.578;5.456;2023-02-28T06:27:46;15.25;;;11.07;;
58621;SDS011;44389;51.578;5.456;2023-02-28T06:30:13;12.88;;;10.77;;
58621;SDS011;44389;51.578;5.456;2023-02-28T06:32:38;13.55;;;11.35;;
58621;SDS011;44389;51.578;5.456;2023-02-28T06:35:04;14.30;;;10.52;;
58621;SDS011;44389;51.578;5.456;2023-02-28T06:37:32;12.20;;;10.65;;
58621;SDS011;44389;51.578;5.456;2023-02-28T06:39:58;16.98;;;10.90;;
58621;SDS011;44389;51.578;5.456;2023-02-28T06:42:24;13.05;;;10.88;;
58621;SDS011;44389;51.578;5.456;2023-02-28T06:44:57;14.18;;;10.80;;
58621;SDS011;44389;51.578;5.456;2023-02-28T06:47:23;14.82;;;10.70;;
58621;SDS011;44389;51.578;5.456;2023-02-28T06:49:49;16.13;;;10.57;;
58621;SDS011;44389;51.578;5.456;2023-02-28T06:52:15;14.57;;;10.73;;
58621;SDS011;44389;51.578;5.456;2023-02-28T06:54:41;13.65;;;10.10;;
58621;SDS011;44389;51.578;5.456;2023-02-28T06:57:06;14.82;;;10.57;;
58621;SDS011;44389;51.578;5.456;2023-02-28T06:59:32;14.82;;;10.43;;
58621;SDS011;44389;51.578;5.456;2023-02-28T07:01:57;15.07;;;10.30;;
58621;SDS011;44389;51.578;5.456;2023-02-28T07:04:23;14.32;;;10.52;;
58621;SDS011;44389;51.578;5.456;2023-02-28T07:06:48;12.32;;;9.60;;
58621;SDS011;44389;51.578;5.456;2023-02-28T07:09:13;13.02;;;9.55;;
58621;SDS011;44389;51.578;5.456;2023-02-28T07:11:39;12.05;;;9.23;;
58621;SDS011;44389;51.578;5.456;2023-02-28T07:14:05;12.95;;;9.57;;
58621;SDS011;44389;51.578;5.456;2023-02-28T07:16:31;13.50;;;9.00;;
58621;SDS011;44389;51.578;5.456;2023-02-28T07:18:57;14.25;;;8.93;;
58621;SDS011;44389;51.578;5.456;2023-02-28T07:21:22;12.38;;;8.77;;
58621;SDS011;44389;51.578;5.456;2023-02-28T07:23:48;12.60;;;8.23;;
58621;SDS011;44389;51.578;5.456;2023-02-28T07:26:14;10.30;;;7.55;;
58621;SDS011;44389;51.578;5.456;2023-02-28T07:28:42;11.27;;;7.15;;
58621;SDS011;44389;51.578;5.456;2023-02-28T07:31:08;9.50;;;7.10;;
58621;SDS011;44389;51.578;5.456;2023-02-28T07:33:34;10.90;;;7.55;;
58621;SDS011;44389;51.578;5.456;2023-02-28T07:36:01;12.38;;;7.60;;
58621;SDS011;44389;51.578;5.456;2023-02-28T07:38:32;11.27;;;6.90;;
58621;SDS011;44389;51.578;5.456;2023-02-28T07:40:59;10.30;;;7.07;;
58621;SDS011;44389;51.578;5.456;2023-02-28T07:43:24;10.57;;;7.18;;
58621;SDS011;44389;51.578;5.456;2023-02-28T07:45:49;9.23;;;7.35;;
58621;SDS011;44389;51.578;5.456;2023-02-28T07:48:15;8.65;;;4.85;;
58621;SDS011;44389;51.578;5.456;2023-02-28T07:50:40;10.73;;;7.10;;
58621;SDS011;44389;51.578;5.456;2023-02-28T07:53:05;11.75;;;7.80;;
58621;SDS011;44389;51.578;5.456;2023-02-28T07:55:31;10.25;;;7.75;;
58621;SDS011;44389;51.578;5.456;2023-02-28T07:57:56;11.90;;;8.23;;
58621;SDS011;44389;51.578;5.456;2023-02-28T08:00:23;9.52;;;7.55;;
58621;SDS011;44389;51.578;5.456;2023-02-28T08:02:48;9.23;;;6.85;;
58621;SDS011;44389;51.578;5.456;2023-02-28T08:05:14;10.48;;;6.75;;
58621;SDS011;44389;51.578;5.456;2023-02-28T08:07:40;10.73;;;7.13;;
58621;SDS011;44389;51.578;5.456;2023-02-28T08:10:06;7.60;;;5.85;;
58621;SDS011;44389;51.578;5.456;2023-02-28T08:12:33;9.60;;;5.68;;
58621;SDS011;44389;51.578;5.456;2023-02-28T08:14:59;8.88;;;5.30;;
58621;SDS011;44389;51.578;5.456;2023-02-28T08:17:24;7.00;;;4.35;;
58621;SDS011;44389;51.578;5.456;2023-02-28T08:19:49;5.60;;;4.10;;
58621;SDS011;44389;51.578;5.456;2023-02-28T08:22:15;6.45;;;3.72;;
58621;SDS011;44389;51.578;5.456;2023-02-28T08:24:40;6.32;;;4.28;;
58621;SDS011;44389;51.578;5.456;2023-02-28T08:27:07;5.47;;;3.90;;
58621;SDS011;44389;51.578;5.456;2023-02-28T08:29:32;5.07;;;3.40;;
58621;SDS011;44389;51.578;5.456;2023-02-28T08:31:58;5.60;;;3.80;;
58621;SDS011;44389;51.578;5.456;2023-02-28T08:34:23;5.75;;;3.30;;
58621;SDS011;44389;51.578;5.456;2023-02-28T08:36:49;5.28;;;3.30;;
58621;SDS011;44389;51.578;5.456;2023-02-28T08:39:14;5.25;;;3.45;;
58621;SDS011;44389;51.578;5.456;2023-02-28T08:41:41;6.53;;;3.75;;
58621;SDS011;44389;51.578;5.456;2023-02-28T08:44:07;5.93;;;3.45;;
58621;SDS011;44389;51.578;5.456;2023-02-28T08:46:32;7.43;;;3.55;;
58621;SDS011;44389;51.578;5.456;2023-02-28T08:48:57;5.00;;;3.60;;
58621;SDS011;44389;51.578;5.456;2023-02-28T08:51:25;5.33;;;3.23;;
58621;SDS011;44389;51.578;5.456;2023-02-28T08:53:54;6.20;;;3.42;;
58621;SDS011;44389;51.578;5.456;2023-02-28T08:56:21;5.30;;;4.03;;
58621;SDS011;44389;51.578;5.456;2023-02-28T08:58:47;5.55;;;3.70;;
58621;SDS011;44389;51.578;5.456;2023-02-28T09:01:15;5.85;;;3.72;;
58621;SDS011;44389;51.578;5.456;2023-02-28T09:03:45;7.03;;;3.83;;
58621;SDS011;44389;51.578;5.456;2023-02-28T09:06:12;4.50;;;3.20;;
58621;SDS011;44389;51.578;5.456;2023-02-28T09:08:38;5.45;;;3.60;;
58621;SDS011;44389;51.578;5.456;2023-02-28T09:11:04;6.35;;;3.38;;
58621;SDS011;44389;51.578;5.456;2023-02-28T09:13:30;3.67;;;2.75;;
58621;SDS011;44389;51.578;5.456;2023-02-28T09:15:57;4.88;;;2.65;;
58621;SDS011;44389;51.578;5.456;2023-02-28T09:18:23;3.53;;;2.60;;
58621;SDS011;44389;51.578;5.456;2023-02-28T09:20:48;4.47;;;2.83;;
58621;SDS011;44389;51.578;5.456;2023-02-28T09:23:15;4.55;;;2.83;;
58621;SDS011;44389;51.578;5.456;2023-02-28T09:25:51;3.53;;;2.50;;
58621;SDS011;44389;51.578;5.456;2023-02-28T09:28:18;5.28;;;2.70;;
58621;SDS011;44389;51.578;5.456;2023-02-28T09:30:44;5.20;;;2.63;;
58621;SDS011;44389;51.578;5.456;2023-02-28T09:33:11;4.33;;;2.77;;
58621;SDS011;44389;51.578;5.456;2023-02-28T09:35:37;4.97;;;2.60;;
58621;SDS011;44389;51.578;5.456;2023-02-28T09:38:02;3.72;;;2.58;;
58621;SDS011;44389;51.578;5.456;2023-02-28T09:40:28;2.85;;;2.40;;
58621;SDS011;44389;51.578;5.456;2023-02-28T09:42:55;4.65;;;2.50;;
58621;SDS011;44389;51.578;5.456;2023-02-28T09:47:48;3.88;;;2.40;;
58621;SDS011;44389;51.578;5.456;2023-02-28T09:53:11;3.80;;;2.70;;
58621;SDS011;44389;51.578;5.456;2023-02-28T09:55:48;3.10;;;2.10;;
58621;SDS011;44389;51.578;5.456;2023-02-28T10:01:21;3.83;;;2.40;;
58621;SDS011;44389;51.578;5.456;2023-02-28T10:03:58;3.03;;;2.13;;
58621;SDS011;44389;51.578;5.456;2023-02-28T10:06:29;3.85;;;2.22;;
58621;SDS011;44389;51.578;5.456;2023-02-28T10:09:05;6.68;;;2.35;;
58621;SDS011;44389;51.578;5.456;2023-02-28T10:11:34;3.95;;;2.28;;
58621;SDS011;44389;51.578;5.456;2023-02-28T10:14:03;3.70;;;2.38;;
58621;SDS011;44389;51.578;5.456;2023-02-28T10:16:52;4.03;;;2.35;;
58621;SDS011;44389;51.578;5.456;2023-02-28T10:19:29;3.30;;;2.05;;
58621;SDS011;44389;51.578;5.456;2023-02-28T10:22:01;3.42;;;1.80;;
58621;SDS011;44389;51.578;5.456;2023-02-28T10:27:16;3.03;;;1.90;;
58621;SDS011;44389;51.578;5.456;2023-02-28T10:29:47;5.00;;;1.98;;
58621;SDS011;44389;51.578;5.456;2023-02-28T10:32:21;2.83;;;1.80;;
58621;SDS011;44389;51.578;5.456;2023-02-28T10:37:39;3.80;;;1.90;;
58621;SDS011;44389;51.578;5.456;2023-02-28T10:40:06;2.90;;;1.92;;
58621;SDS011;44389;51.578;5.456;2023-02-28T10:45:34;4.03;;;1.83;;
58621;SDS011;44389;51.578;5.456;2023-02-28T10:55:57;4.85;;;2.20;;
58621;SDS011;44389;51.578;5.456;2023-02-28T10:58:48;3.75;;;2.17;;
58621;SDS011;44389;51.578;5.456;2023-02-28T11:01:21;2.92;;;2.00;;
58621;SDS011;44389;51.578;5.456;2023-02-28T11:04:50;3.30;;;1.90;;
58621;SDS011;44389;51.578;5.456;2023-02-28T11:07:06;4.40;;;2.30;;
58621;SDS011;44389;51.578;5.456;2023-02-28T11:09:44;3.05;;;1.83;;
58621;SDS011;44389;51.578;5.456;2023-02-28T11:20:23;2.67;;;1.70;;
58621;SDS011;44389;51.578;5.456;2023-02-28T11:22:51;4.43;;;1.98;;
58621;SDS011;44389;51.578;5.456;2023-02-28T11:27:54;3.10;;;2.00;;
58621;SDS011;44389;51.578;5.456;2023-02-28T11:30:43;3.00;;;1.90;;
58621;SDS011;44389;51.578;5.456;2023-02-28T11:33:21;3.25;;;1.98;;
58621;SDS011;44389;51.578;5.456;2023-02-28T11:36:10;4.50;;;2.28;;
58621;SDS011;44389;51.578;5.456;2023-02-28T11:38:41;3.00;;;2.00;;
58621;SDS011;44389;51.578;5.456;2023-02-28T11:44:18;3.63;;;1.80;;
58621;SDS011;44389;51.578;5.456;2023-02-28T11:47:34;2.25;;;1.75;;
58621;SDS011;44389;51.578;5.456;2023-02-28T11:52:45;3.65;;;2.28;;
58621;SDS011;44389;51.578;5.456;2023-02-28T12:11:59;3.25;;;1.92;;
58621;SDS011;44389;51.578;5.456;2023-02-28T12:20:17;2.92;;;2.10;;
58621;SDS011;44389;51.578;5.456;2023-02-28T12:25:45;3.03;;;2.00;;
58621;SDS011;44389;51.578;5.456;2023-02-28T12:28:28;3.17;;;1.90;;
58621;SDS011;44389;51.578;5.456;2023-02-28T12:31:04;2.45;;;1.80;;
58621;SDS011;44389;51.578;5.456;2023-02-28T12:33:36;3.95;;;1.95;;
58621;SDS011;44389;51.578;5.456;2023-02-28T12:36:11;3.08;;;1.95;;
58621;SDS011;44389;51.578;5.456;2023-02-28T12:38:50;3.72;;;2.00;;
58621;SDS011;44389;51.578;5.456;2023-02-28T12:44:17;3.53;;;2.00;;
58621;SDS011;44389;51.578;5.456;2023-02-28T12:46:54;3.08;;;1.98;;
58621;SDS011;44389;51.578;5.456;2023-02-28T12:49:25;3.80;;;2.20;;
58621;SDS011;44389;51.578;5.456;2023-02-28T12:51:56;4.15;;;2.50;;
58621;SDS011;44389;51.578;5.456;2023-02-28T12:54:42;4.07;;;2.13;;
58621;SDS011;44389;51.578;5.456;2023-02-28T13:02:44;4.28;;;2.38;;
58621;SDS011;44389;51.578;5.456;2023-02-28T13:08:48;3.75;;;2.28;;
58621;SDS011;44389;51.578;5.456;2023-02-28T13:11:44;2.85;;;2.00;;
58621;SDS011;44389;51.578;5.456;2023-02-28T13:14:37;3.58;;;2.30;;
58621;SDS011;44389;51.578;5.456;2023-02-28T13:19:58;3.88;;;2.22;;
58621;SDS011;44389;51.578;5.456;2023-02-28T13:22:42;3.00;;;2.00;;
58621;SDS011;44389;51.578;5.456;2023-02-28T13:27:47;3.58;;;2.33;;
58621;SDS011;44389;51.578;5.456;2023-02-28T13:33:28;6.10;;;2.42;;
58621;SDS011;44389;51.578;5.456;2023-02-28T13:36:06;4.13;;;2.20;;
58621;SDS011;44389;51.578;5.456;2023-02-28T13:38:42;3.78;;;2.33;;
58621;SDS011;44389;51.578;5.456;2023-02-28T13:44:06;3.20;;;2.05;;
58621;SDS011;44389;51.578;5.456;2023-02-28T14:14:03;3.63;;;2.30;;
58621;SDS011;44389;51.578;5.456;2023-02-28T14:16:39;3.85;;;2.72;;
58621;SDS011;44389;51.578;5.456;2023-02-28T14:19:15;3.75;;;2.67;;
58621;SDS011;44389;51.578;5.456;2023-02-28T14:21:50;3.95;;;2.17;;
58621;SDS011;44389;51.578;5.456;2023-02-28T14:29:42;5.15;;;2.80;;
58621;SDS011;44389;51.578;5.456;2023-02-28T14:37:37;4.03;;;2.88;;
58621;SDS011;44389;51.578;5.456;2023-02-28T14:40:11;3.97;;;2.38;;
58621;SDS011;44389;51.578;5.456;2023-02-28T14:42:45;4.10;;;2.95;;
58621;SDS011;44389;51.578;5.456;2023-02-28T14:45:21;3.60;;;2.40;;
58621;SDS011;44389;51.578;5.456;2023-02-28T14:47:48;4.90;;;2.78;;
58621;SDS011;44389;51.578;5.456;2023-02-28T14:50:23;4.00;;;2.53;;
58621;SDS011;44389;51.578;5.456;2023-02-28T14:52:59;8.10;;;2.88;;
58621;SDS011;44389;51.578;5.456;2023-02-28T14:55:28;6.20;;;3.17;;
58621;SDS011;44389;51.578;5.456;2023-02-28T14:58:17;4.05;;;2.75;;
58621;SDS011;44389;51.578;5.456;2023-02-28T15:00:48;5.32;;;2.72;;
58621;SDS011;44389;51.578;5.456;2023-02-28T15:03:18;6.20;;;2.97;;
58621;SDS011;44389;51.578;5.456;2023-02-28T15:05:54;4.80;;;2.75;;
58621;SDS011;44389;51.578;5.456;2023-02-28T15:08:29;6.53;;;3.30;;
58621;SDS011;44389;51.578;5.456;2023-02-28T15:11:13;4.20;;;3.03;;
58621;SDS011;44389;51.578;5.456;2023-02-28T15:13:59;4.22;;;3.15;;
58621;SDS011;44389;51.578;5.456;2023-02-28T15:16:26;4.97;;;2.95;;
58621;SDS011;44389;51.578;5.456;2023-02-28T15:21:35;5.80;;;2.90;;
58621;SDS011;44389;51.578;5.456;2023-02-28T15:24:04;4.07;;;3.20;;
58621;SDS011;44389;51.578;5.456;2023-02-28T15:26:37;5.50;;;3.63;;
58621;SDS011;44389;51.578;5.456;2023-02-28T15:29:05;4.60;;;3.30;;
58621;SDS011;44389;51.578;5.456;2023-02-28T15:31:39;5.18;;;3.30;;
58621;SDS011;44389;51.578;5.456;2023-02-28T15:34:21;4.22;;;3.20;;
58621;SDS011;44389;51.578;5.456;2023-02-28T15:39:51;4.45;;;3.50;;
58621;SDS011;44389;51.578;5.456;2023-02-28T15:42:19;5.60;;;3.75;;
58621;SDS011;44389;51.578;5.456;2023-02-28T15:44:46;4.82;;;3.42;;
58621;SDS011;44389;51.578;5.456;2023-02-28T15:47:19;6.13;;;3.35;;
58621;SDS011;44389;51.578;5.456;2023-02-28T15:49:51;6.38;;;3.88;;
58621;SDS011;44389;51.578;5.456;2023-02-28T15:52:29;5.40;;;3.55;;
58621;SDS011;44389;51.578;5.456;2023-02-28T15:55:09;4.75;;;3.30;;
58621;SDS011;44389;51.578;5.456;2023-02-28T15:57:43;10.52;;;3.40;;
58621;SDS011;44389;51.578;5.456;2023-02-28T16:00:12;5.38;;;3.60;;
58621;SDS011;44389;51.578;5.456;2023-02-28T16:02:42;5.43;;;3.83;;
58621;SDS011;44389;51.578;5.456;2023-02-28T16:07:34;4.85;;;3.70;;
58621;SDS011;44389;51.578;5.456;2023-02-28T16:10:01;6.30;;;3.65;;
58621;SDS011;44389;51.578;5.456;2023-02-28T16:12:27;4.85;;;3.38;;
58621;SDS011;44389;51.578;5.456;2023-02-28T16:17:22;6.10;;;3.50;;
58621;SDS011;44389;51.578;5.456;2023-02-28T16:19:50;5.32;;;3.97;;
58621;SDS011;44389;51.578;5.456;2023-02-28T16:22:16;6.30;;;3.95;;
58621;SDS011;44389;51.578;5.456;2023-02-28T16:24:41;6.00;;;4.00;;
58621;SDS011;44389;51.578;5.456;2023-02-28T16:27:06;5.07;;;3.97;;
58621;SDS011;44389;51.578;5.456;2023-02-28T16:29:41;6.05;;;4.10;;
58621;SDS011;44389;51.578;5.456;2023-02-28T16:32:06;6.20;;;3.92;;
58621;SDS011;44389;51.578;5.456;2023-02-28T16:34:32;5.45;;;3.80;;
58621;SDS011;44389;51.578;5.456;2023-02-28T16:36:57;3.88;;;3.28;;
58621;SDS011;44389;51.578;5.456;2023-02-28T16:39:23;4.90;;;3.75;;
58621;SDS011;44389;51.578;5.456;2023-02-28T16:41:49;5.43;;;3.67;;
58621;SDS011;44389;51.578;5.456;2023-02-28T16:44:21;6.45;;;3.90;;
58621;SDS011;44389;51.578;5.456;2023-02-28T16:46:56;6.32;;;4.03;;
58621;SDS011;44389;51.578;5.456;2023-02-28T16:49:21;7.68;;;3.95;;
58621;SDS011;44389;51.578;5.456;2023-02-28T16:51:46;4.95;;;3.90;;
58621;SDS011;44389;51.578;5.456;2023-02-28T16:54:12;6.90;;;4.10;;
58621;SDS011;44389;51.578;5.456;2023-02-28T16:56:37;9.88;;;4.18;;
58621;SDS011;44389;51.578;5.456;2023-02-28T16:59:07;8.40;;;4.07;;
58621;SDS011;44389;51.578;5.456;2023-02-28T17:01:33;5.93;;;4.40;;
58621;SDS011;44389;51.578;5.456;2023-02-28T17:03:58;6.00;;;4.22;;
58621;SDS011;44389;51.578;5.456;2023-02-28T17:06:24;4.80;;;3.90;;
58621;SDS011;44389;51.578;5.456;2023-02-28T17:08:52;5.85;;;4.25;;
58621;SDS011;44389;51.578;5.456;2023-02-28T17:11:18;6.25;;;3.95;;
58621;SDS011;44389;51.578;5.456;2023-02-28T17:13:44;6.03;;;4.18;;
58621;SDS011;44389;51.578;5.456;2023-02-28T17:16:22;7.63;;;4.68;;
58621;SDS011;44389;51.578;5.456;2023-02-28T17:18:51;7.78;;;4.47;;
58621;SDS011;44389;51.578;5.456;2023-02-28T17:21:18;7.20;;;5.03;;
58621;SDS011;44389;51.578;5.456;2023-02-28T17:23:43;7.75;;;5.10;;
58621;SDS011;44389;51.578;5.456;2023-02-28T17:26:13;5.63;;;4.40;;
58621;SDS011;44389;51.578;5.456;2023-02-28T17:28:40;5.60;;;4.10;;
58621;SDS011;44389;51.578;5.456;2023-02-28T17:31:05;5.32;;;3.97;;
58621;SDS011;44389;51.578;5.456;2023-02-28T17:33:30;5.53;;;4.18;;
58621;SDS011;44389;51.578;5.456;2023-02-28T17:35:56;5.22;;;4.07;;
58621;SDS011;44389;51.578;5.456;2023-02-28T17:38:21;7.13;;;4.80;;
58621;SDS011;44389;51.578;5.456;2023-02-28T17:40:47;6.20;;;4.30;;
58621;SDS011;44389;51.578;5.456;2023-02-28T17:43:13;4.78;;;4.20;;
58621;SDS011;44389;51.578;5.456;2023-02-28T17:45:39;6.28;;;4.70;;
58621;SDS011;44389;51.578;5.456;2023-02-28T17:48:05;6.25;;;4.57;;
58621;SDS011;44389;51.578;5.456;2023-02-28T17:50:31;7.38;;;4.85;;
58621;SDS011;44389;51.578;5.456;2023-02-28T17:52:57;6.43;;;4.38;;
58621;SDS011;44389;51.578;5.456;2023-02-28T17:55:23;19.52;;;14.13;;